sensor_id;sensor_type;location;lat;lon;timestamp;P1;durP1;ratioP1;P2;durP2;ratioP2
8944;SDS011;4507;40.232;29.132;2022-10-04T00:01:42;15.03;;;7.83;;
8944;SDS011;4507;40.232;29.132;2022-10-04T00:04:15;12.57;;;8.37;;
8944;SDS011;4507;40.232;29.132;2022-10-04T00:06:54;18.00;;;8.17;;
8944;SDS011;4507;40.232;29.132;2022-10-04T00:09:27;12.37;;;8.13;;
8944;SDS011;4507;40.232;29.132;2022-10-04T00:12:01;13.40;;;7.57;;
8944;SDS011;4507;40.232;29.132;2022-10-04T00:14:34;13.63;;;7.70;;
8944;SDS011;4507;40.232;29.132;2022-10-04T00:17:09;12.57;;;7.60;;
8944;SDS011;4507;40.232;29.132;2022-10-04T00:19:41;13.03;;;7.27;;
8944;SDS011;4507;40.232;29.132;2022-10-04T00:22:16;15.67;;;7.67;;
8944;SDS011;4507;40.232;29.132;2022-10-04T00:25:00;13.00;;;7.93;;
8944;SDS011;4507;40.232;29.132;2022-10-04T00:31:01;15.40;;;7.70;;
8944;SDS011;4507;40.232;29.132;2022-10-04T00:33:45;12.77;;;6.77;;
8944;SDS011;4507;40.232;29.132;2022-10-04T00:36:38;15.70;;;7.13;;
8944;SDS011;4507;40.232;29.132;2022-10-04T00:42:15;11.40;;;6.73;;
8944;SDS011;4507;40.232;29.132;2022-10-04T00:44:55;14.13;;;6.30;;
8944;SDS011;4507;40.232;29.132;2022-10-04T00:47:29;11.17;;;6.67;;
8944;SDS011;4507;40.232;29.132;2022-10-04T00:50:04;9.53;;;6.50;;
8944;SDS011;4507;40.232;29.132;2022-10-04T00:52:41;11.03;;;6.50;;
8944;SDS011;4507;40.232;29.132;2022-10-04T00:55:17;16.70;;;6.53;;
8944;SDS011;4507;40.232;29.132;2022-10-04T00:57:53;19.50;;;6.97;;
8944;SDS011;4507;40.232;29.132;2022-10-04T01:00:26;9.17;;;6.20;;
8944;SDS011;4507;40.232;29.132;2022-10-04T01:03:20;8.83;;;6.30;;
8944;SDS011;4507;40.232;29.132;2022-10-04T01:05:57;12.97;;;7.40;;
8944;SDS011;4507;40.232;29.132;2022-10-04T01:08:31;9.20;;;6.20;;
8944;SDS011;4507;40.232;29.132;2022-10-04T01:11:23;11.47;;;6.93;;
8944;SDS011;4507;40.232;29.132;2022-10-04T01:13:55;9.77;;;6.47;;
8944;SDS011;4507;40.232;29.132;2022-10-04T01:16:26;9.37;;;6.27;;
8944;SDS011;4507;40.232;29.132;2022-10-04T01:18:58;10.60;;;5.30;;
8944;SDS011;4507;40.232;29.132;2022-10-04T01:22:08;7.27;;;5.30;;
8944;SDS011;4507;40.232;29.132;2022-10-04T01:24:40;17.47;;;5.30;;
8944;SDS011;4507;40.232;29.132;2022-10-04T01:29:59;26.73;;;5.70;;
8944;SDS011;4507;40.232;29.132;2022-10-04T01:32:29;10.83;;;5.10;;
8944;SDS011;4507;40.232;29.132;2022-10-04T01:34:58;14.97;;;5.27;;
8944;SDS011;4507;40.232;29.132;2022-10-04T01:37:27;11.50;;;4.83;;
8944;SDS011;4507;40.232;29.132;2022-10-04T01:39:57;8.73;;;4.80;;
8944;SDS011;4507;40.232;29.132;2022-10-04T01:42:28;13.90;;;4.80;;
8944;SDS011;4507;40.232;29.132;2022-10-04T01:45:04;10.53;;;4.40;;
8944;SDS011;4507;40.232;29.132;2022-10-04T01:47:39;7.23;;;4.03;;
8944;SDS011;4507;40.232;29.132;2022-10-04T01:50:12;9.67;;;4.80;;
8944;SDS011;4507;40.232;29.132;2022-10-04T01:52:47;8.53;;;4.60;;
8944;SDS011;4507;40.232;29.132;2022-10-04T01:55:24;10.57;;;4.40;;
8944;SDS011;4507;40.232;29.132;2022-10-04T01:57:57;8.57;;;4.70;;
8944;SDS011;4507;40.232;29.132;2022-10-04T02:00:36;7.80;;;4.53;;
8944;SDS011;4507;40.232;29.132;2022-10-04T02:03:10;9.67;;;4.47;;
8944;SDS011;4507;40.232;29.132;2022-10-04T02:05:47;12.47;;;5.03;;
8944;SDS011;4507;40.232;29.132;2022-10-04T02:08:22;8.90;;;4.13;;
8944;SDS011;4507;40.232;29.132;2022-10-04T02:10:55;7.60;;;4.33;;
8944;SDS011;4507;40.232;29.132;2022-10-04T02:13:26;7.63;;;4.43;;
8944;SDS011;4507;40.232;29.132;2022-10-04T02:16:01;10.47;;;4.30;;
8944;SDS011;4507;40.232;29.132;2022-10-04T02:18:31;5.73;;;3.97;;
8944;SDS011;4507;40.232;29.132;2022-10-04T02:21:00;5.43;;;4.00;;
8944;SDS011;4507;40.232;29.132;2022-10-04T02:23:33;6.40;;;4.17;;
8944;SDS011;4507;40.232;29.132;2022-10-04T02:26:05;8.30;;;4.27;;
8944;SDS011;4507;40.232;29.132;2022-10-04T02:28:35;11.57;;;4.57;;
8944;SDS011;4507;40.232;29.132;2022-10-04T02:31:05;12.03;;;4.77;;
8944;SDS011;4507;40.232;29.132;2022-10-04T02:33:54;8.50;;;4.23;;
8944;SDS011;4507;40.232;29.132;2022-10-04T02:36:25;7.30;;;4.37;;
8944;SDS011;4507;40.232;29.132;2022-10-04T02:38:57;6.80;;;4.10;;
8944;SDS011;4507;40.232;29.132;2022-10-04T02:41:30;11.50;;;4.60;;
8944;SDS011;4507;40.232;29.132;2022-10-04T02:44:03;15.83;;;7.60;;
8944;SDS011;4507;40.232;29.132;2022-10-04T02:46:42;21.63;;;11.07;;
8944;SDS011;4507;40.232;29.132;2022-10-04T02:49:15;14.07;;;7.30;;
8944;SDS011;4507;40.232;29.132;2022-10-04T02:51:56;17.40;;;8.00;;
8944;SDS011;4507;40.232;29.132;2022-10-04T02:54:29;15.87;;;7.70;;
8944;SDS011;4507;40.232;29.132;2022-10-04T02:57:08;13.60;;;7.90;;
8944;SDS011;4507;40.232;29.132;2022-10-04T03:00:06;21.17;;;9.67;;
8944;SDS011;4507;40.232;29.132;2022-10-04T03:03:07;19.23;;;9.17;;
8944;SDS011;4507;40.232;29.132;2022-10-04T03:05:46;20.37;;;9.77;;
8944;SDS011;4507;40.232;29.132;2022-10-04T03:08:23;18.27;;;9.40;;
8944;SDS011;4507;40.232;29.132;2022-10-04T03:10:53;18.83;;;9.57;;
8944;SDS011;4507;40.232;29.132;2022-10-04T03:13:23;15.93;;;9.47;;
8944;SDS011;4507;40.232;29.132;2022-10-04T03:15:54;17.53;;;9.60;;
8944;SDS011;4507;40.232;29.132;2022-10-04T03:18:23;18.60;;;9.87;;
8944;SDS011;4507;40.232;29.132;2022-10-04T03:20:51;23.03;;;9.73;;
8944;SDS011;4507;40.232;29.132;2022-10-04T03:23:39;14.13;;;8.97;;
8944;SDS011;4507;40.232;29.132;2022-10-04T03:26:12;16.27;;;9.57;;
8944;SDS011;4507;40.232;29.132;2022-10-04T03:28:48;15.50;;;10.17;;
8944;SDS011;4507;40.232;29.132;2022-10-04T03:31:16;19.53;;;9.50;;
8944;SDS011;4507;40.232;29.132;2022-10-04T03:33:46;15.43;;;9.70;;
8944;SDS011;4507;40.232;29.132;2022-10-04T03:36:15;16.83;;;9.60;;
8944;SDS011;4507;40.232;29.132;2022-10-04T03:38:45;14.77;;;9.97;;
8944;SDS011;4507;40.232;29.132;2022-10-04T03:41:16;21.10;;;11.80;;
8944;SDS011;4507;40.232;29.132;2022-10-04T03:43:45;33.03;;;17.97;;
8944;SDS011;4507;40.232;29.132;2022-10-04T03:46:17;38.90;;;18.63;;
8944;SDS011;4507;40.232;29.132;2022-10-04T03:48:49;45.80;;;17.90;;
8944;SDS011;4507;40.232;29.132;2022-10-04T03:51:20;36.27;;;17.03;;
8944;SDS011;4507;40.232;29.132;2022-10-04T03:53:51;40.37;;;15.43;;
8944;SDS011;4507;40.232;29.132;2022-10-04T03:56:24;32.83;;;14.80;;
8944;SDS011;4507;40.232;29.132;2022-10-04T03:58:56;33.20;;;13.50;;
8944;SDS011;4507;40.232;29.132;2022-10-04T04:01:30;26.43;;;12.33;;
8944;SDS011;4507;40.232;29.132;2022-10-04T04:04:06;16.00;;;8.03;;
8944;SDS011;4507;40.232;29.132;2022-10-04T04:06:45;15.43;;;8.10;;
8944;SDS011;4507;40.232;29.132;2022-10-04T04:09:19;40.23;;;13.53;;
8944;SDS011;4507;40.232;29.132;2022-10-04T04:11:52;36.90;;;14.83;;
8944;SDS011;4507;40.232;29.132;2022-10-04T04:14:26;34.80;;;13.77;;
8944;SDS011;4507;40.232;29.132;2022-10-04T04:17:15;37.83;;;14.27;;
8944;SDS011;4507;40.232;29.132;2022-10-04T04:19:56;41.40;;;13.73;;
8944;SDS011;4507;40.232;29.132;2022-10-04T04:22:56;40.87;;;14.83;;
8944;SDS011;4507;40.232;29.132;2022-10-04T04:25:28;36.23;;;13.83;;
8944;SDS011;4507;40.232;29.132;2022-10-04T04:28:04;27.93;;;12.17;;
8944;SDS011;4507;40.232;29.132;2022-10-04T04:30:44;31.07;;;12.07;;
8944;SDS011;4507;40.232;29.132;2022-10-04T04:33:17;29.50;;;12.27;;
8944;SDS011;4507;40.232;29.132;2022-10-04T04:35:53;26.53;;;11.17;;
8944;SDS011;4507;40.232;29.132;2022-10-04T04:38:29;34.00;;;10.63;;
8944;SDS011;4507;40.232;29.132;2022-10-04T04:41:06;23.87;;;11.17;;
8944;SDS011;4507;40.232;29.132;2022-10-04T04:43:41;23.83;;;10.70;;
8944;SDS011;4507;40.232;29.132;2022-10-04T04:46:13;22.60;;;10.40;;
8944;SDS011;4507;40.232;29.132;2022-10-04T04:48:55;24.33;;;10.47;;
8944;SDS011;4507;40.232;29.132;2022-10-04T04:51:28;20.57;;;10.10;;
8944;SDS011;4507;40.232;29.132;2022-10-04T04:53:59;21.33;;;9.07;;
8944;SDS011;4507;40.232;29.132;2022-10-04T04:56:31;21.17;;;8.93;;
8944;SDS011;4507;40.232;29.132;2022-10-04T04:59:01;22.97;;;7.13;;
8944;SDS011;4507;40.232;29.132;2022-10-04T05:01:35;45.47;;;13.07;;
8944;SDS011;4507;40.232;29.132;2022-10-04T05:04:17;43.33;;;13.47;;
8944;SDS011;4507;40.232;29.132;2022-10-04T05:06:47;45.47;;;15.17;;
8944;SDS011;4507;40.232;29.132;2022-10-04T05:09:28;48.60;;;17.87;;
8944;SDS011;4507;40.232;29.132;2022-10-04T05:12:02;33.60;;;14.73;;
8944;SDS011;4507;40.232;29.132;2022-10-04T05:14:36;33.03;;;14.77;;
8944;SDS011;4507;40.232;29.132;2022-10-04T05:17:13;43.53;;;16.20;;
8944;SDS011;4507;40.232;29.132;2022-10-04T05:19:45;39.50;;;19.90;;
8944;SDS011;4507;40.232;29.132;2022-10-04T05:22:15;37.87;;;15.80;;
8944;SDS011;4507;40.232;29.132;2022-10-04T05:24:50;19.53;;;10.17;;
8944;SDS011;4507;40.232;29.132;2022-10-04T05:27:41;23.60;;;9.20;;
8944;SDS011;4507;40.232;29.132;2022-10-04T05:30:13;21.97;;;7.17;;
8944;SDS011;4507;40.232;29.132;2022-10-04T05:33:06;17.67;;;7.50;;
8944;SDS011;4507;40.232;29.132;2022-10-04T05:35:47;15.57;;;5.83;;
8944;SDS011;4507;40.232;29.132;2022-10-04T05:38:29;14.67;;;6.77;;
8944;SDS011;4507;40.232;29.132;2022-10-04T05:41:05;31.87;;;17.47;;
8944;SDS011;4507;40.232;29.132;2022-10-04T05:43:36;84.13;;;58.37;;
8944;SDS011;4507;40.232;29.132;2022-10-04T05:46:20;157.77;;;107.20;;
8944;SDS011;4507;40.232;29.132;2022-10-04T05:48:57;105.13;;;64.07;;
8944;SDS011;4507;40.232;29.132;2022-10-04T05:51:31;31.87;;;18.53;;
8944;SDS011;4507;40.232;29.132;2022-10-04T05:54:23;46.83;;;31.43;;
8944;SDS011;4507;40.232;29.132;2022-10-04T05:56:57;114.53;;;83.83;;
8944;SDS011;4507;40.232;29.132;2022-10-04T05:59:43;120.37;;;87.87;;
8944;SDS011;4507;40.232;29.132;2022-10-04T06:02:27;93.07;;;69.40;;
8944;SDS011;4507;40.232;29.132;2022-10-04T06:05:10;36.07;;;25.43;;
8944;SDS011;4507;40.232;29.132;2022-10-04T06:07:42;34.50;;;24.63;;
8944;SDS011;4507;40.232;29.132;2022-10-04T06:10:27;71.27;;;44.43;;
8944;SDS011;4507;40.232;29.132;2022-10-04T06:13:14;75.43;;;46.37;;
8944;SDS011;4507;40.232;29.132;2022-10-04T06:15:56;37.33;;;27.07;;
8944;SDS011;4507;40.232;29.132;2022-10-04T06:18:42;26.07;;;14.97;;
8944;SDS011;4507;40.232;29.132;2022-10-04T06:21:34;19.47;;;12.97;;
8944;SDS011;4507;40.232;29.132;2022-10-04T06:24:10;19.50;;;10.47;;
8944;SDS011;4507;40.232;29.132;2022-10-04T06:26:43;34.53;;;12.83;;
8944;SDS011;4507;40.232;29.132;2022-10-04T06:29:18;34.77;;;12.47;;
8944;SDS011;4507;40.232;29.132;2022-10-04T06:32:00;28.77;;;11.33;;
8944;SDS011;4507;40.232;29.132;2022-10-04T06:37:47;32.07;;;13.57;;
8944;SDS011;4507;40.232;29.132;2022-10-04T06:40:43;27.50;;;12.80;;
8944;SDS011;4507;40.232;29.132;2022-10-04T06:44:09;24.70;;;10.87;;
8944;SDS011;4507;40.232;29.132;2022-10-04T06:46:51;26.53;;;10.10;;
8944;SDS011;4507;40.232;29.132;2022-10-04T06:49:38;22.73;;;9.30;;
8944;SDS011;4507;40.232;29.132;2022-10-04T06:55:31;18.47;;;7.97;;
8944;SDS011;4507;40.232;29.132;2022-10-04T06:58:38;19.67;;;10.27;;
8944;SDS011;4507;40.232;29.132;2022-10-04T07:01:29;21.50;;;9.90;;
8944;SDS011;4507;40.232;29.132;2022-10-04T07:04:01;17.03;;;6.83;;
8944;SDS011;4507;40.232;29.132;2022-10-04T07:06:38;11.77;;;6.13;;
8944;SDS011;4507;40.232;29.132;2022-10-04T07:09:19;9.10;;;5.70;;
8944;SDS011;4507;40.232;29.132;2022-10-04T07:11:52;17.30;;;5.87;;
8944;SDS011;4507;40.232;29.132;2022-10-04T07:14:28;14.53;;;6.63;;
8944;SDS011;4507;40.232;29.132;2022-10-04T07:17:08;12.97;;;10.00;;
8944;SDS011;4507;40.232;29.132;2022-10-04T07:19:40;15.63;;;8.80;;
8944;SDS011;4507;40.232;29.132;2022-10-04T07:22:14;20.50;;;7.50;;
8944;SDS011;4507;40.232;29.132;2022-10-04T07:24:55;12.20;;;6.90;;
8944;SDS011;4507;40.232;29.132;2022-10-04T07:27:31;16.60;;;7.33;;
8944;SDS011;4507;40.232;29.132;2022-10-04T07:30:21;20.37;;;7.87;;
8944;SDS011;4507;40.232;29.132;2022-10-04T07:32:49;14.83;;;8.43;;
8944;SDS011;4507;40.232;29.132;2022-10-04T07:35:22;12.77;;;6.40;;
8944;SDS011;4507;40.232;29.132;2022-10-04T07:38:01;10.40;;;5.00;;
8944;SDS011;4507;40.232;29.132;2022-10-04T07:41:04;10.73;;;5.67;;
8944;SDS011;4507;40.232;29.132;2022-10-04T07:43:43;9.40;;;5.70;;
8944;SDS011;4507;40.232;29.132;2022-10-04T07:46:25;15.33;;;5.70;;
8944;SDS011;4507;40.232;29.132;2022-10-04T07:49:10;9.80;;;5.20;;
8944;SDS011;4507;40.232;29.132;2022-10-04T07:51:43;11.20;;;7.07;;
8944;SDS011;4507;40.232;29.132;2022-10-04T07:54:26;10.23;;;5.13;;
8944;SDS011;4507;40.232;29.132;2022-10-04T07:57:07;8.80;;;4.33;;
8944;SDS011;4507;40.232;29.132;2022-10-04T07:59:46;7.97;;;4.40;;
8944;SDS011;4507;40.232;29.132;2022-10-04T08:02:25;12.73;;;4.80;;
8944;SDS011;4507;40.232;29.132;2022-10-04T08:05:04;11.47;;;4.60;;
8944;SDS011;4507;40.232;29.132;2022-10-04T08:07:46;6.30;;;4.40;;
8944;SDS011;4507;40.232;29.132;2022-10-04T08:10:28;9.37;;;4.17;;
8944;SDS011;4507;40.232;29.132;2022-10-04T08:13:04;6.70;;;3.57;;
8944;SDS011;4507;40.232;29.132;2022-10-04T08:15:43;13.23;;;3.67;;
8944;SDS011;4507;40.232;29.132;2022-10-04T08:18:24;17.33;;;4.70;;
8944;SDS011;4507;40.232;29.132;2022-10-04T08:21:05;10.43;;;4.30;;
8944;SDS011;4507;40.232;29.132;2022-10-04T08:23:54;10.20;;;3.73;;
8944;SDS011;4507;40.232;29.132;2022-10-04T08:26:39;9.87;;;3.90;;
8944;SDS011;4507;40.232;29.132;2022-10-04T08:29:28;8.60;;;4.00;;
8944;SDS011;4507;40.232;29.132;2022-10-04T08:32:13;7.47;;;3.33;;
8944;SDS011;4507;40.232;29.132;2022-10-04T08:35:03;9.80;;;4.30;;
8944;SDS011;4507;40.232;29.132;2022-10-04T08:37:44;12.07;;;3.60;;
8944;SDS011;4507;40.232;29.132;2022-10-04T08:43:44;8.80;;;3.77;;
8944;SDS011;4507;40.232;29.132;2022-10-04T08:49:57;25.13;;;22.53;;
8944;SDS011;4507;40.232;29.132;2022-10-04T08:53:00;8.33;;;3.90;;
8944;SDS011;4507;40.232;29.132;2022-10-04T08:55:54;9.87;;;3.10;;
8944;SDS011;4507;40.232;29.132;2022-10-04T08:58:39;7.97;;;3.30;;
8944;SDS011;4507;40.232;29.132;2022-10-04T09:04:49;19.63;;;4.53;;
8944;SDS011;4507;40.232;29.132;2022-10-04T09:07:53;13.80;;;4.93;;
8944;SDS011;4507;40.232;29.132;2022-10-04T09:10:49;14.20;;;5.23;;
8944;SDS011;4507;40.232;29.132;2022-10-04T09:13:36;13.97;;;4.70;;
8944;SDS011;4507;40.232;29.132;2022-10-04T09:16:14;8.43;;;4.10;;
8944;SDS011;4507;40.232;29.132;2022-10-04T09:18:48;11.60;;;3.90;;
8944;SDS011;4507;40.232;29.132;2022-10-04T09:21:25;11.97;;;4.67;;
8944;SDS011;4507;40.232;29.132;2022-10-04T09:27:11;11.40;;;4.87;;
8944;SDS011;4507;40.232;29.132;2022-10-04T09:30:13;9.43;;;4.30;;
8944;SDS011;4507;40.232;29.132;2022-10-04T09:32:58;10.77;;;3.87;;
8944;SDS011;4507;40.232;29.132;2022-10-04T09:39:29;11.43;;;3.20;;
8944;SDS011;4507;40.232;29.132;2022-10-04T09:45:29;6.97;;;2.97;;
8944;SDS011;4507;40.232;29.132;2022-10-04T09:48:18;6.50;;;3.47;;
8944;SDS011;4507;40.232;29.132;2022-10-04T09:53:57;7.53;;;3.60;;
8944;SDS011;4507;40.232;29.132;2022-10-04T09:56:47;15.70;;;3.73;;
8944;SDS011;4507;40.232;29.132;2022-10-04T09:59:40;13.33;;;4.37;;
8944;SDS011;4507;40.232;29.132;2022-10-04T10:05:48;11.07;;;2.97;;
8944;SDS011;4507;40.232;29.132;2022-10-04T10:08:35;8.60;;;4.27;;
8944;SDS011;4507;40.232;29.132;2022-10-04T10:11:14;13.27;;;4.67;;
8944;SDS011;4507;40.232;29.132;2022-10-04T10:17:14;7.07;;;3.40;;
8944;SDS011;4507;40.232;29.132;2022-10-04T10:22:57;3.97;;;2.10;;
8944;SDS011;4507;40.232;29.132;2022-10-04T10:25:46;10.23;;;2.53;;
8944;SDS011;4507;40.232;29.132;2022-10-04T10:31:36;7.10;;;3.37;;
8944;SDS011;4507;40.232;29.132;2022-10-04T10:34:35;8.20;;;3.53;;
8944;SDS011;4507;40.232;29.132;2022-10-04T10:37:20;8.93;;;3.63;;
8944;SDS011;4507;40.232;29.132;2022-10-04T10:46:23;8.33;;;3.23;;
8944;SDS011;4507;40.232;29.132;2022-10-04T10:49:16;6.47;;;2.80;;
8944;SDS011;4507;40.232;29.132;2022-10-04T10:52:10;13.10;;;3.47;;
8944;SDS011;4507;40.232;29.132;2022-10-04T10:58:42;7.33;;;4.00;;
8944;SDS011;4507;40.232;29.132;2022-10-04T11:04:51;4.57;;;3.03;;
8944;SDS011;4507;40.232;29.132;2022-10-04T11:07:44;11.80;;;3.20;;
8944;SDS011;4507;40.232;29.132;2022-10-04T11:13:35;13.93;;;3.63;;
8944;SDS011;4507;40.232;29.132;2022-10-04T11:16:46;10.13;;;2.90;;
8944;SDS011;4507;40.232;29.132;2022-10-04T11:19:56;13.57;;;3.00;;
8944;SDS011;4507;40.232;29.132;2022-10-04T11:29:15;7.30;;;3.80;;
8944;SDS011;4507;40.232;29.132;2022-10-04T11:32:12;85.93;;;71.10;;
8944;SDS011;4507;40.232;29.132;2022-10-04T11:38:28;7.77;;;4.00;;
8944;SDS011;4507;40.232;29.132;2022-10-04T11:41:14;7.53;;;4.23;;
8944;SDS011;4507;40.232;29.132;2022-10-04T11:43:57;7.40;;;4.10;;
8944;SDS011;4507;40.232;29.132;2022-10-04T11:46:47;7.67;;;4.63;;
8944;SDS011;4507;40.232;29.132;2022-10-04T11:49:30;12.07;;;5.37;;
8944;SDS011;4507;40.232;29.132;2022-10-04T11:55:36;13.70;;;7.40;;
8944;SDS011;4507;40.232;29.132;2022-10-04T11:58:23;13.20;;;8.10;;
8944;SDS011;4507;40.232;29.132;2022-10-04T12:01:12;15.70;;;7.73;;
8944;SDS011;4507;40.232;29.132;2022-10-04T12:04:23;26.03;;;7.57;;
8944;SDS011;4507;40.232;29.132;2022-10-04T12:10:24;28.60;;;6.77;;
8944;SDS011;4507;40.232;29.132;2022-10-04T12:16:19;20.23;;;8.50;;
8944;SDS011;4507;40.232;29.132;2022-10-04T12:22:14;24.13;;;8.77;;
8944;SDS011;4507;40.232;29.132;2022-10-04T12:25:13;14.00;;;7.07;;
8944;SDS011;4507;40.232;29.132;2022-10-04T12:28:02;16.00;;;6.73;;
8944;SDS011;4507;40.232;29.132;2022-10-04T12:30:48;15.77;;;7.40;;
8944;SDS011;4507;40.232;29.132;2022-10-04T12:33:36;29.70;;;7.70;;
8944;SDS011;4507;40.232;29.132;2022-10-04T12:36:15;15.47;;;6.30;;
8944;SDS011;4507;40.232;29.132;2022-10-04T12:38:57;10.30;;;5.67;;
8944;SDS011;4507;40.232;29.132;2022-10-04T12:41:45;7.83;;;5.30;;
8944;SDS011;4507;40.232;29.132;2022-10-04T12:44:28;11.90;;;5.40;;
8944;SDS011;4507;40.232;29.132;2022-10-04T12:50:10;12.27;;;5.00;;
8944;SDS011;4507;40.232;29.132;2022-10-04T12:52:49;23.67;;;6.20;;
8944;SDS011;4507;40.232;29.132;2022-10-04T12:55:42;16.57;;;5.90;;
8944;SDS011;4507;40.232;29.132;2022-10-04T12:58:20;24.20;;;6.63;;
8944;SDS011;4507;40.232;29.132;2022-10-04T13:00:57;43.37;;;7.33;;
8944;SDS011;4507;40.232;29.132;2022-10-04T13:03:37;33.23;;;7.13;;
8944;SDS011;4507;40.232;29.132;2022-10-04T13:06:27;19.17;;;5.87;;
8944;SDS011;4507;40.232;29.132;2022-10-04T13:09:10;20.70;;;6.33;;
8944;SDS011;4507;40.232;29.132;2022-10-04T13:11:47;17.40;;;5.90;;
8944;SDS011;4507;40.232;29.132;2022-10-04T13:14:33;17.83;;;6.90;;
8944;SDS011;4507;40.232;29.132;2022-10-04T13:17:12;22.93;;;7.27;;
8944;SDS011;4507;40.232;29.132;2022-10-04T13:22:59;13.60;;;7.63;;
8944;SDS011;4507;40.232;29.132;2022-10-04T13:25:58;19.37;;;6.83;;
8944;SDS011;4507;40.232;29.132;2022-10-04T13:28:46;16.43;;;5.90;;
8944;SDS011;4507;40.232;29.132;2022-10-04T13:31:23;12.57;;;5.67;;
8944;SDS011;4507;40.232;29.132;2022-10-04T13:34:04;18.17;;;6.00;;
8944;SDS011;4507;40.232;29.132;2022-10-04T13:36:52;16.37;;;8.90;;
8944;SDS011;4507;40.232;29.132;2022-10-04T13:39:44;14.83;;;8.67;;
8944;SDS011;4507;40.232;29.132;2022-10-04T13:45:23;21.30;;;13.83;;
8944;SDS011;4507;40.232;29.132;2022-10-04T13:48:11;12.10;;;9.70;;
8944;SDS011;4507;40.232;29.132;2022-10-04T13:54:02;14.10;;;10.17;;
8944;SDS011;4507;40.232;29.132;2022-10-04T13:57:02;15.33;;;7.93;;
8944;SDS011;4507;40.232;29.132;2022-10-04T13:59:47;14.40;;;7.27;;
8944;SDS011;4507;40.232;29.132;2022-10-04T14:02:41;13.83;;;9.63;;
8944;SDS011;4507;40.232;29.132;2022-10-04T14:08:54;7.07;;;4.30;;
8944;SDS011;4507;40.232;29.132;2022-10-04T14:12:11;7.97;;;3.93;;
8944;SDS011;4507;40.232;29.132;2022-10-04T14:24:15;8.83;;;5.67;;
8944;SDS011;4507;40.232;29.132;2022-10-04T14:27:21;7.67;;;5.80;;
8944;SDS011;4507;40.232;29.132;2022-10-04T14:30:24;8.07;;;4.40;;
8944;SDS011;4507;40.232;29.132;2022-10-04T14:36:19;4.80;;;3.67;;
8944;SDS011;4507;40.232;29.132;2022-10-04T14:42:51;4.03;;;3.23;;
8944;SDS011;4507;40.232;29.132;2022-10-04T14:45:42;4.30;;;2.87;;
8944;SDS011;4507;40.232;29.132;2022-10-04T14:51:35;4.70;;;2.80;;
8944;SDS011;4507;40.232;29.132;2022-10-04T14:54:14;6.50;;;3.23;;
8944;SDS011;4507;40.232;29.132;2022-10-04T14:56:57;5.50;;;4.20;;
8944;SDS011;4507;40.232;29.132;2022-10-04T15:02:54;6.77;;;5.60;;
8944;SDS011;4507;40.232;29.132;2022-10-04T15:05:41;8.07;;;5.43;;
8944;SDS011;4507;40.232;29.132;2022-10-04T15:11:38;9.70;;;6.70;;
8944;SDS011;4507;40.232;29.132;2022-10-04T15:14:37;8.90;;;6.50;;
8944;SDS011;4507;40.232;29.132;2022-10-04T15:17:10;7.37;;;6.00;;
8944;SDS011;4507;40.232;29.132;2022-10-04T15:20:01;7.87;;;6.03;;
8944;SDS011;4507;40.232;29.132;2022-10-04T15:22:37;6.57;;;5.27;;
8944;SDS011;4507;40.232;29.132;2022-10-04T15:28:26;11.83;;;7.33;;
8944;SDS011;4507;40.232;29.132;2022-10-04T15:31:11;14.70;;;7.60;;
8944;SDS011;4507;40.232;29.132;2022-10-04T15:33:54;10.90;;;7.47;;
8944;SDS011;4507;40.232;29.132;2022-10-04T15:36:40;10.37;;;6.90;;
8944;SDS011;4507;40.232;29.132;2022-10-04T15:39:24;9.97;;;6.70;;
8944;SDS011;4507;40.232;29.132;2022-10-04T15:42:12;13.73;;;6.93;;
8944;SDS011;4507;40.232;29.132;2022-10-04T15:44:55;17.30;;;8.30;;
8944;SDS011;4507;40.232;29.132;2022-10-04T15:47:52;14.37;;;9.90;;
8944;SDS011;4507;40.232;29.132;2022-10-04T15:50:34;37.10;;;26.40;;
8944;SDS011;4507;40.232;29.132;2022-10-04T15:53:14;35.53;;;21.57;;
8944;SDS011;4507;40.232;29.132;2022-10-04T15:55:56;20.03;;;15.50;;
8944;SDS011;4507;40.232;29.132;2022-10-04T16:01:41;16.87;;;11.73;;
8944;SDS011;4507;40.232;29.132;2022-10-04T16:04:31;17.63;;;12.97;;
8944;SDS011;4507;40.232;29.132;2022-10-04T16:07:18;24.87;;;16.30;;
8944;SDS011;4507;40.232;29.132;2022-10-04T16:10:24;33.43;;;18.43;;
8944;SDS011;4507;40.232;29.132;2022-10-04T16:13:17;60.60;;;39.60;;
8944;SDS011;4507;40.232;29.132;2022-10-04T16:19:15;34.47;;;16.53;;
8944;SDS011;4507;40.232;29.132;2022-10-04T16:22:07;32.70;;;15.17;;
8944;SDS011;4507;40.232;29.132;2022-10-04T16:24:45;23.57;;;13.03;;
8944;SDS011;4507;40.232;29.132;2022-10-04T16:27:33;17.23;;;10.50;;
8944;SDS011;4507;40.232;29.132;2022-10-04T16:30:36;13.43;;;8.90;;
8944;SDS011;4507;40.232;29.132;2022-10-04T16:33:20;17.90;;;10.03;;
8944;SDS011;4507;40.232;29.132;2022-10-04T16:36:05;24.43;;;9.70;;
8944;SDS011;4507;40.232;29.132;2022-10-04T16:38:44;18.47;;;9.77;;
8944;SDS011;4507;40.232;29.132;2022-10-04T16:41:39;23.07;;;9.57;;
8944;SDS011;4507;40.232;29.132;2022-10-04T16:44:25;15.63;;;9.50;;
8944;SDS011;4507;40.232;29.132;2022-10-04T16:47:02;36.97;;;12.23;;
8944;SDS011;4507;40.232;29.132;2022-10-04T16:49:48;21.63;;;10.60;;
8944;SDS011;4507;40.232;29.132;2022-10-04T16:58:42;22.43;;;10.67;;
8944;SDS011;4507;40.232;29.132;2022-10-04T17:05:02;24.67;;;11.70;;
8944;SDS011;4507;40.232;29.132;2022-10-04T17:08:06;18.90;;;11.97;;
8944;SDS011;4507;40.232;29.132;2022-10-04T17:14:31;23.67;;;12.80;;
8944;SDS011;4507;40.232;29.132;2022-10-04T17:17:17;28.40;;;11.93;;
8944;SDS011;4507;40.232;29.132;2022-10-04T17:19:52;20.60;;;11.27;;
8944;SDS011;4507;40.232;29.132;2022-10-04T17:22:26;16.80;;;11.00;;
8944;SDS011;4507;40.232;29.132;2022-10-04T17:25:03;18.97;;;11.23;;
8944;SDS011;4507;40.232;29.132;2022-10-04T17:27:50;18.47;;;10.23;;
8944;SDS011;4507;40.232;29.132;2022-10-04T17:30:23;17.60;;;10.43;;
8944;SDS011;4507;40.232;29.132;2022-10-04T17:33:02;20.87;;;10.80;;
8944;SDS011;4507;40.232;29.132;2022-10-04T17:38:50;52.23;;;14.30;;
8944;SDS011;4507;40.232;29.132;2022-10-04T17:41:31;28.60;;;12.20;;
8944;SDS011;4507;40.232;29.132;2022-10-04T17:44:27;24.23;;;11.10;;
8944;SDS011;4507;40.232;29.132;2022-10-04T17:47:11;22.97;;;10.47;;
8944;SDS011;4507;40.232;29.132;2022-10-04T17:49:53;23.97;;;9.87;;
8944;SDS011;4507;40.232;29.132;2022-10-04T17:52:45;15.17;;;7.90;;
8944;SDS011;4507;40.232;29.132;2022-10-04T17:55:41;11.80;;;6.90;;
8944;SDS011;4507;40.232;29.132;2022-10-04T17:58:14;12.07;;;6.67;;
8944;SDS011;4507;40.232;29.132;2022-10-04T18:00:50;12.50;;;6.83;;
8944;SDS011;4507;40.232;29.132;2022-10-04T18:03:25;11.40;;;6.50;;
8944;SDS011;4507;40.232;29.132;2022-10-04T18:06:10;13.90;;;6.57;;
8944;SDS011;4507;40.232;29.132;2022-10-04T18:08:50;15.53;;;6.17;;
8944;SDS011;4507;40.232;29.132;2022-10-04T18:11:24;12.97;;;6.13;;
8944;SDS011;4507;40.232;29.132;2022-10-04T18:14:00;11.80;;;6.13;;
8944;SDS011;4507;40.232;29.132;2022-10-04T18:16:40;10.67;;;5.90;;
8944;SDS011;4507;40.232;29.132;2022-10-04T18:19:30;11.63;;;7.07;;
8944;SDS011;4507;40.232;29.132;2022-10-04T18:22:10;9.53;;;6.40;;
8944;SDS011;4507;40.232;29.132;2022-10-04T18:24:41;23.77;;;20.03;;
8944;SDS011;4507;40.232;29.132;2022-10-04T18:27:13;20.33;;;13.40;;
8944;SDS011;4507;40.232;29.132;2022-10-04T18:29:55;15.60;;;13.90;;
8944;SDS011;4507;40.232;29.132;2022-10-04T18:32:32;51.50;;;40.57;;
8944;SDS011;4507;40.232;29.132;2022-10-04T18:35:16;118.80;;;90.33;;
8944;SDS011;4507;40.232;29.132;2022-10-04T18:37:54;69.67;;;57.43;;
8944;SDS011;4507;40.232;29.132;2022-10-04T18:40:26;57.77;;;39.80;;
8944;SDS011;4507;40.232;29.132;2022-10-04T18:43:00;32.50;;;24.30;;
8944;SDS011;4507;40.232;29.132;2022-10-04T18:45:29;41.97;;;34.30;;
8944;SDS011;4507;40.232;29.132;2022-10-04T18:48:05;45.20;;;35.20;;
8944;SDS011;4507;40.232;29.132;2022-10-04T18:50:43;14.17;;;11.47;;